sensor_id;sensor_type;location;lat;lon;timestamp;pressure;altitude;pressure_sealevel;temperature;humidity
47712;BME280;57457;51.634;5.886;2023-03-25T00:10:43;99900;;;9.7;83.9
47712;BME280;57457;51.634;5.886;2023-03-25T00:24:03;99900;;;9.8;83.2
47712;BME280;57457;51.634;5.886;2023-03-25T00:37:23;99900;;;9.9;82.6
47712;BME280;57457;51.634;5.886;2023-03-25T00:50:43;99900;;;10.0;82.1
47712;BME280;57457;51.634;5.886;2023-03-25T01:04:05;99900;;;10.1;81.4
47712;BME280;57457;51.634;5.886;2023-03-25T01:17:24;99900;;;10.1;81.0
47712;BME280;57457;51.634;5.886;2023-03-25T01:30:44;99900;;;10.2;81.2
47712;BME280;57457;51.634;5.886;2023-03-25T01:44:06;99900;;;10.2;81.2
47712;BME280;57457;51.634;5.886;2023-03-25T01:57:25;99900;;;10.2;81.6
47712;BME280;57457;51.634;5.886;2023-03-25T02:10:45;99900;;;10.1;82.1
47712;BME280;57457;51.634;5.886;2023-03-25T02:24:07;99900;;;10.0;83.4
47712;BME280;57457;51.634;5.886;2023-03-25T02:37:28;99900;;;9.8;82.9
47712;BME280;57457;51.634;5.886;2023-03-25T02:50:48;99900;;;9.8;83.8
47712;BME280;57457;51.634;5.886;2023-03-25T03:04:09;99900;;;9.6;83.5
47712;BME280;57457;51.634;5.886;2023-03-25T03:17:31;99900;;;9.6;83.4
47712;BME280;57457;51.634;5.886;2023-03-25T03:30:52;99900;;;9.6;83.9
47712;BME280;57457;51.634;5.886;2023-03-25T03:44:12;99900;;;9.5;84.9
47712;BME280;57457;51.634;5.886;2023-03-25T03:57:33;99900;;;9.4;86.0
47712;BME280;57457;51.634;5.886;2023-03-25T04:10:55;99900;;;9.2;85.9
47712;BME280;57457;51.634;5.886;2023-03-25T04:24:15;99900;;;9.1;85.8
47712;BME280;57457;51.634;5.886;2023-03-25T04:37:36;99900;;;9.0;85.4
47712;BME280;57457;51.634;5.886;2023-03-25T04:50:58;99900;;;9.0;84.8
47712;BME280;57457;51.634;5.886;2023-03-25T05:04:19;99900;;;9.0;84.4
47712;BME280;57457;51.634;5.886;2023-03-25T05:17:39;99900;;;9.1;85.4
47712;BME280;57457;51.634;5.886;2023-03-25T05:31:00;99900;;;9.0;86.6
47712;BME280;57457;51.634;5.886;2023-03-25T05:44:20;99900;;;8.8;86.5
47712;BME280;57457;51.634;5.886;2023-03-25T05:57:42;99900;;;8.7;86.8
47712;BME280;57457;51.634;5.886;2023-03-25T06:11:01;99900;;;8.7;85.8
47712;BME280;57457;51.634;5.886;2023-03-25T06:24:21;99900;;;8.7;84.6
47712;BME280;57457;51.634;5.886;2023-03-25T06:37:43;99900;;;8.9;84.0
47712;BME280;57457;51.634;5.886;2023-03-25T07:04:24;99900;;;8.9;83.2
47712;BME280;57457;51.634;5.886;2023-03-25T07:17:46;99900;;;9.2;82.3
47712;BME280;57457;51.634;5.886;2023-03-25T07:31:07;99900;;;9.4;82.0
47712;BME280;57457;51.634;5.886;2023-03-25T07:44:27;99900;;;9.6;82.2
47712;BME280;57457;51.634;5.886;2023-03-25T07:57:47;99900;;;9.8;83.5
47712;BME280;57457;51.634;5.886;2023-03-25T08:11:08;100000;;;9.7;83.7
47712;BME280;57457;51.634;5.886;2023-03-25T08:24:30;100000;;;9.7;83.8
47712;BME280;57457;51.634;5.886;2023-03-25T08:37:50;100000;;;9.8;83.6
47712;BME280;57457;51.634;5.886;2023-03-25T08:51:11;100000;;;9.8;84.9
47712;BME280;57457;51.634;5.886;2023-03-25T09:04:31;100000;;;9.7;85.4
47712;BME280;57457;51.634;5.886;2023-03-25T09:17:52;100000;;;9.7;85.3
47712;BME280;57457;51.634;5.886;2023-03-25T09:31:14;100000;;;9.8;84.3
47712;BME280;57457;51.634;5.886;2023-03-25T09:44:35;100000;;;10.1;82.4
47712;BME280;57457;51.634;5.886;2023-03-25T09:57:57;100000;;;10.6;81.6
47712;BME280;57457;51.634;5.886;2023-03-25T10:11:18;100000;;;11.0;81.8
47712;BME280;57457;51.634;5.886;2023-03-25T10:24:39;100000;;;11.0;83.6
47712;BME280;57457;51.634;5.886;2023-03-25T10:37:59;100000;;;10.9;84.1
47712;BME280;57457;51.634;5.886;2023-03-25T10:51:21;100000;;;10.6;85.4
47712;BME280;57457;51.634;5.886;2023-03-25T11:04:41;100000;;;10.4;86.6
47712;BME280;57457;51.634;5.886;2023-03-25T11:18:02;100000;;;10.1;87.5
47712;BME280;57457;51.634;5.886;2023-03-25T11:31:24;100000;;;9.8;87.5
47712;BME280;57457;51.634;5.886;2023-03-25T11:44:44;100000;;;10.2;82.5
47712;BME280;57457;51.634;5.886;2023-03-25T11:58:04;100000;;;10.7;79.6
47712;BME280;57457;51.634;5.886;2023-03-25T12:11:25;100000;;;11.2;79.4
47712;BME280;57457;51.634;5.886;2023-03-25T12:24:45;100000;;;11.3;82.8
47712;BME280;57457;51.634;5.886;2023-03-25T12:51:27;100000;;;11.3;84.9
47712;BME280;57457;51.634;5.886;2023-03-25T13:04:47;100000;;;10.7;84.0
47712;BME280;57457;51.634;5.886;2023-03-25T13:18:07;100000;;;10.7;83.8
47712;BME280;57457;51.634;5.886;2023-03-25T13:31:27;100000;;;10.9;85.0
47712;BME280;57457;51.634;5.886;2023-03-25T13:44:48;100000;;;10.7;85.4
47712;BME280;57457;51.634;5.886;2023-03-25T13:58:08;100000;;;10.7;84.4
47712;BME280;57457;51.634;5.886;2023-03-25T14:11:28;100100;;;11.0;81.7
47712;BME280;57457;51.634;5.886;2023-03-25T14:24:48;100100;;;11.5;76.0
47712;BME280;57457;51.634;5.886;2023-03-25T14:38:08;100100;;;12.3;73.5
47712;BME280;57457;51.634;5.886;2023-03-25T14:51:30;100100;;;12.5;72.9
47712;BME280;57457;51.634;5.886;2023-03-25T15:04:50;100100;;;12.6;71.5
47712;BME280;57457;51.634;5.886;2023-03-25T15:18:10;100100;;;12.7;71.0
47712;BME280;57457;51.634;5.886;2023-03-25T15:31:31;100100;;;12.7;71.1
47712;BME280;57457;51.634;5.886;2023-03-25T15:44:51;100100;;;12.7;69.0
47712;BME280;57457;51.634;5.886;2023-03-25T15:58:12;100100;;;12.7;70.4
47712;BME280;57457;51.634;5.886;2023-03-25T16:11:34;100100;;;12.7;68.5
47712;BME280;57457;51.634;5.886;2023-03-25T16:24:55;100100;;;12.7;71.5
47712;BME280;57457;51.634;5.886;2023-03-25T16:38:15;100100;;;12.7;72.9
47712;BME280;57457;51.634;5.886;2023-03-25T16:51:35;100100;;;12.6;71.8
47712;BME280;57457;51.634;5.886;2023-03-25T17:04:56;100200;;;12.5;73.7
47712;BME280;57457;51.634;5.886;2023-03-25T17:18:16;100200;;;12.4;75.1
47712;BME280;57457;51.634;5.886;2023-03-25T17:31:36;100200;;;12.3;74.7
47712;BME280;57457;51.634;5.886;2023-03-25T17:44:56;100200;;;12.3;75.8
47712;BME280;57457;51.634;5.886;2023-03-25T17:58:17;100200;;;12.2;76.1
47712;BME280;57457;51.634;5.886;2023-03-25T18:11:39;100200;;;12.1;75.8
47712;BME280;57457;51.634;5.886;2023-03-25T18:24:59;100200;;;12.1;76.0
47712;BME280;57457;51.634;5.886;2023-03-25T18:38:20;100200;;;12.1;77.0
47712;BME280;57457;51.634;5.886;2023-03-25T18:51:40;100300;;;12.1;78.8
47712;BME280;57457;51.634;5.886;2023-03-25T19:05:00;100300;;;12.0;80.0
47712;BME280;57457;51.634;5.886;2023-03-25T19:31:41;100300;;;11.4;81.4
47712;BME280;57457;51.634;5.886;2023-03-25T19:45:03;100300;;;11.0;83.3
47712;BME280;57457;51.634;5.886;2023-03-25T19:58:22;100300;;;10.8;83.8
47712;BME280;57457;51.634;5.886;2023-03-25T20:11:44;100300;;;10.3;86.0
47712;BME280;57457;51.634;5.886;2023-03-25T20:25:05;100300;;;9.8;86.8
47712;BME280;57457;51.634;5.886;2023-03-25T20:38:27;100300;;;9.3;86.4
47712;BME280;57457;51.634;5.886;2023-03-25T20:51:47;100300;;;8.9;86.7
47712;BME280;57457;51.634;5.886;2023-03-25T21:18:29;100400;;;8.5;87.3
47712;BME280;57457;51.634;5.886;2023-03-25T21:31:51;100400;;;8.5;87.0
47712;BME280;57457;51.634;5.886;2023-03-25T21:45:12;100400;;;8.5;87.1
47712;BME280;57457;51.634;5.886;2023-03-25T22:11:53;100400;;;8.5;86.6
47712;BME280;57457;51.634;5.886;2023-03-25T22:25:15;100400;;;8.6;86.5
47712;BME280;57457;51.634;5.886;2023-03-25T22:38:35;100400;;;8.6;86.6
47712;BME280;57457;51.634;5.886;2023-03-25T22:51:56;100400;;;8.6;87.0
47712;BME280;57457;51.634;5.886;2023-03-25T23:05:18;100400;;;8.6;87.0
47712;BME280;57457;51.634;5.886;2023-03-25T23:18:39;100400;;;8.7;86.7
47712;BME280;57457;51.634;5.886;2023-03-25T23:32:00;100400;;;8.8;86.6
47712;BME280;57457;51.634;5.886;2023-03-25T23:45:20;100400;;;8.9;86.6
47712;BME280;57457;51.634;5.886;2023-03-25T23:58:42;100400;;;9.0;86.5
